KSTK/STK METAR and TAF weather

Enter ICAO airport designator
Station Type Date Time Source
KSTK METAR 2019/05/26 23:50 UTC NOAA

KSTK 262350Z AUTO 13015G23KT 10SM SCT035 SCT046 SCT055 22/15 A2974 RMK AO2 LTG DSNT N


Station Type Date Time Source
KSTK Decoded METAR 2019/05/26 23:50 UTC NOAA

Station name not available
May 26, 2019 - 07:50 PM EDT / 2019.05.26 2350 UTC
Wind: from the SE (130 degrees) at 17 MPH (15 KT) gusting to 26 MPH (23 KT):0
Visibility: 10 mile(s):0
Sky conditions: partly cloudy
Weather: Lightning observed
Temperature: 71 F (22 C)
Dew Point: 59 F (15 C)
Relative Humidity: 64%
Pressure (altimeter): 29.74 in. Hg (1007 hPa)
ob: KSTK 262350Z AUTO 13015G23KT 10SM SCT035 SCT046 SCT055 22/15 A2974 RMK AO2 LTG DSNT N
cycle: 0

Station Type Date Time Source
KSTK TAF UTC NOAA

Error!

Example: see airport list